Royal Lakes, Illinois
Current Conditions -  °F | °C
As of 5:35 AM on Thursday 27 Nov 2014 (Local Time) from KALN Reporting Station
Overcast Overcast  
Wind Chill: -8°   Ceiling: 2000
Heat Index: -3°   Visibility: 7mi
Dew Point: -5°   Wind: 10mph
Humidity: 82%   Direction: 320°NW
Pressure: 30.4"   Gusts: 18mph
Location:  39.138°N, 90.0562°W
Report Text: KALN 271135Z AUTO 32009G16KT 7SM OVC020 M02/M05 A3040 RMK AO2 T10251052
Loading
Personal Weather Stations






























Interactive Weather Map New forecast layout! Learn more

10-Day Weather Forecast

Advertisements
Track Severe Weather on mobile